Terminal Aerodrome Forecast
Issued by NWS

Home | Current Version | Previous Version | Text Only | Print | Product List | Glossary On
Versions: 1 2 3 4 5 6 7 8 9 10 11 12 13 14
000
FTUS46 KMTR 252340
TAFMRY
TAF
KMRY 252340Z 2600/2624 30007KT P6SM VCSH FEW020 BKN050 OVC120
     FM260400 10003KT P6SM -SHRA FEW020 BKN040 OVC100
     FM260900 09003KT P6SM FEW030 SCT060 BKN180
     FM261300 09003KT P6SM BKN220
     FM261700 28006KT P6SM SCT050=

USA.gov is the U.S. government's official web portal to all federal, state and local government web resources and services.